Quick Links (Output Below):   Max & Min Temps   /   Climate Reports   /   Zone Forecasts
River Forecasts   /   Forestry Forecasts   /   Aviation Forecasts   /   Radars   /   Features

Terminal Aerodrome Forecast (Monticello)

Pick a Site:
Arkadelphia | El Dorado | Fayetteville | Fort Smith | Harrison | Highfill | Hot Springs | Jonesboro
Little Rock | Monticello | Mountain Home | Pine Bluff | Texarkana

KLLQ 241734Z 2418/2518 15007KT P6SM SCT150 BKN250
     FM251200 13006KT P6SM BKN050=

 Latest METARs (Observations) 
How to Decode METARs
22Z KLLQ 242153Z AUTO 12006KT 10SM CLR 16/M01 A3022 RMK AO2 SLP232
         T01611006 TSNO
21Z KLLQ 242053Z AUTO 15008KT 10SM CLR 17/M03 A3023 RMK AO2 SLP235
         T01671028 56026 TSNO
20Z KLLQ 241953Z AUTO 15010KT 10SM CLR 17/M03 A3025 RMK AO2 SLP242
         T01671028 TSNO
19Z KLLQ 241853Z AUTO 16006KT 10SM CLR 16/00 A3028 RMK AO2 SLP253
         T01560000 TSNO
18Z KLLQ 241753Z AUTO 12006KT 10SM CLR 13/03 A3030 RMK AO2 SLP261
         T01330028 10133 20017 58014 TSNO
17Z KLLQ 241653Z AUTO 15004KT 10SM CLR 11/02 A3034 RMK AO2 SLP274
         T01110022 TSNO
16Z KLLQ 241553Z AUTO 15005KT 10SM CLR 09/02 A3035 RMK AO2 SLP276
         T00940017 TSNO
15Z KLLQ 241453Z AUTO 13005KT 10SM CLR 07/01 A3034 RMK AO2 SLP275
         T00720011 53012 TSNO
14Z KLLQ 241353Z AUTO 00000KT 10SM CLR 04/02 A3033 RMK AO2 SLP272
         T00390017 TSNO
13Z KLLQ 241253Z AUTO 00000KT 10SM CLR 03/01 A3032 RMK AO2 SLP268
         T00330011 TSNO
***** Today's Observations (Above) *****

Back to Main Page

USA.gov is the U.S. government's official web portal to all federal, state and local government web resources and services.